Time;durP1;ratioP1;P1;durP2;ratioP2;P2;SDS_P1;SDS_P2;PMS_P1;PMS_P2;Temp;Humidity;BMP_temperature;BMP_pressure;BME280_temperature;BME280_humidity;BME280_pressure;Samples;Min_cycle;Max_cycle;Signal;HPM_P1;HPM_P2
2021/12/19 00:01:08;;;;;;;47.80;21.80;;;;;;;;;;4979143;28;20074;-68
2021/12/19 00:08:52;;;;;;;43.83;16.42;;;;;;;;;;4974107;28;20705;-67
2021/12/19 00:11:18;;;;;;;55.67;18.38;;;;;;;;;;4981576;28;20019;-67
2021/12/19 00:13:44;;;;;;;71.60;19.63;;;;;;;;;;4978345;28;20512;-67
2021/12/19 00:16:10;;;;;;;65.95;21.45;;;;;;;;;;4974803;28;20058;-67
2021/12/19 00:18:35;;;;;;;52.80;22.35;;;;;;;;;;4978464;28;20026;-67
2021/12/19 00:21:00;;;;;;;54.85;15.88;;;;;;;;;;4976342;28;20047;-68
2021/12/19 00:23:26;;;;;;;49.42;22.50;;;;;;;;;;4976850;28;20026;-67
2021/12/19 00:25:52;;;;;;;112.95;26.67;;;;;;;;;;4975949;28;20034;-68
2021/12/19 00:28:17;;;;;;;41.67;19.90;;;;;;;;;;4983220;28;20080;-68
2021/12/19 00:30:42;;;;;;;49.78;21.65;;;;;;;;;;4978333;28;20035;-68
2021/12/19 00:33:07;;;;;;;47.15;23.13;;;;;;;;;;4973420;28;20025;-68
2021/12/19 00:35:33;;;;;;;65.38;26.85;;;;;;;;;;4977135;28;20027;-67
2021/12/19 00:37:58;;;;;;;47.13;24.48;;;;;;;;;;4976193;28;20038;-67
2021/12/19 00:40:23;;;;;;;26.77;13.80;;;;;;;;;;4976171;28;20030;-68
2021/12/19 00:43:01;;;;;;;24.02;13.02;;;;;;;;;;4975002;28;20046;-67
2021/12/19 00:45:29;;;;;;;33.20;17.38;;;;;;;;;;4979173;28;20033;-67
2021/12/19 00:47:55;;;;;;;23.92;12.95;;;;;;;;;;4979869;28;20022;-67
2021/12/19 00:50:20;;;;;;;27.70;13.88;;;;;;;;;;4981630;28;20040;-66
2021/12/19 00:52:48;;;;;;;29.42;15.45;;;;;;;;;;4979236;28;20105;-67
2021/12/19 00:55:14;;;;;;;21.67;12.88;;;;;;;;;;4983177;28;20080;-67
2021/12/19 00:57:39;;;;;;;18.00;10.88;;;;;;;;;;4976083;28;20070;-67
2021/12/19 01:00:06;;;;;;;20.38;11.48;;;;;;;;;;4974383;28;20049;-67
2021/12/19 01:02:31;;;;;;;22.77;13.38;;;;;;;;;;4976263;28;20043;-67
2021/12/19 01:04:57;;;;;;;34.30;16.20;;;;;;;;;;4978227;28;20045;-68
2021/12/19 01:07:22;;;;;;;28.67;14.02;;;;;;;;;;4978870;28;20073;-68
2021/12/19 01:09:47;;;;;;;49.50;22.70;;;;;;;;;;4971957;28;20035;-67
2021/12/19 01:12:13;;;;;;;131.60;53.10;;;;;;;;;;4977464;28;20081;-68
2021/12/19 01:14:38;;;;;;;67.53;32.85;;;;;;;;;;4978082;28;20082;-67
2021/12/19 01:17:04;;;;;;;70.60;30.95;;;;;;;;;;4980333;28;20109;-67
2021/12/19 01:19:29;;;;;;;49.55;24.23;;;;;;;;;;4978338;28;20031;-68
2021/12/19 01:21:55;;;;;;;32.30;16.80;;;;;;;;;;4976248;28;20452;-68
2021/12/19 01:24:20;;;;;;;69.03;19.73;;;;;;;;;;4977922;28;20363;-68
2021/12/19 01:26:45;;;;;;;47.45;21.42;;;;;;;;;;4978599;28;20026;-68
2021/12/19 01:29:11;;;;;;;61.47;25.05;;;;;;;;;;4972200;28;20371;-67
2021/12/19 01:31:36;;;;;;;41.03;16.55;;;;;;;;;;4978267;28;20568;-67
2021/12/19 01:34:02;;;;;;;72.30;35.20;;;;;;;;;;4974531;28;20022;-67
2021/12/19 01:36:27;;;;;;;51.88;23.52;;;;;;;;;;4980879;28;20481;-67
2021/12/19 01:38:52;;;;;;;60.58;27.70;;;;;;;;;;4977229;28;20574;-68
2021/12/19 01:41:18;;;;;;;44.72;21.80;;;;;;;;;;4972719;28;20037;-67
2021/12/19 01:43:43;;;;;;;24.52;13.98;;;;;;;;;;4979915;28;20035;-68
2021/12/19 01:46:08;;;;;;;29.42;13.65;;;;;;;;;;4976471;28;20039;-68
2021/12/19 01:48:34;;;;;;;114.70;42.55;;;;;;;;;;4978958;28;20023;-67
2021/12/19 01:50:59;;;;;;;74.75;33.50;;;;;;;;;;4986421;28;20102;-67
2021/12/19 01:53:24;;;;;;;64.57;28.75;;;;;;;;;;4975990;28;20065;-67
2021/12/19 01:55:50;;;;;;;36.72;16.58;;;;;;;;;;4976973;28;20050;-67
2021/12/19 01:58:16;;;;;;;28.02;13.18;;;;;;;;;;4973413;28;20077;-68
2021/12/19 02:00:47;;;;;;;24.05;11.80;;;;;;;;;;4980242;28;20045;-67
2021/12/19 02:03:12;;;;;;;15.38;9.75;;;;;;;;;;4983510;28;20018;-68
2021/12/19 02:05:38;;;;;;;36.47;15.77;;;;;;;;;;4974976;28;20446;-68
2021/12/19 02:08:06;;;;;;;20.63;11.15;;;;;;;;;;4979051;28;20041;-67
2021/12/19 02:10:32;;;;;;;16.65;9.48;;;;;;;;;;4976689;28;20062;-67
2021/12/19 02:12:58;;;;;;;18.13;10.27;;;;;;;;;;4978080;28;20065;-67
2021/12/19 02:15:25;;;;;;;19.20;10.02;;;;;;;;;;4976870;28;20035;-67
2021/12/19 02:17:52;;;;;;;16.60;9.65;;;;;;;;;;4974972;28;20031;-67
2021/12/19 02:20:18;;;;;;;18.88;9.73;;;;;;;;;;4976066;28;20463;-68
2021/12/19 02:22:43;;;;;;;18.58;10.00;;;;;;;;;;4984570;28;20026;-67
2021/12/19 02:25:09;;;;;;;14.73;9.40;;;;;;;;;;4971011;28;20081;-67
2021/12/19 02:27:34;;;;;;;18.85;9.55;;;;;;;;;;4973850;28;20022;-68
2021/12/19 02:30:00;;;;;;;17.90;9.77;;;;;;;;;;4977269;28;20061;-67
2021/12/19 02:32:27;;;;;;;16.88;9.73;;;;;;;;;;4960818;28;20503;-68
2021/12/19 02:34:55;;;;;;;16.55;9.73;;;;;;;;;;4980506;28;20080;-68
2021/12/19 02:40:22;;;;;;;31.00;17.85;;;;;;;;;;4968872;28;20026;-67
2021/12/19 02:48:14;;;;;;;130.93;75.13;;;;;;;;;;4978854;28;20516;-68
2021/12/19 02:50:47;;;;;;;16.27;10.57;;;;;;;;;;4974100;28;20046;-67
2021/12/19 02:53:13;;;;;;;20.65;11.05;;;;;;;;;;4979296;28;20102;-67
2021/12/19 02:55:39;;;;;;;21.75;11.43;;;;;;;;;;4974494;28;20114;-68
2021/12/19 02:58:04;;;;;;;19.73;11.00;;;;;;;;;;4979637;28;20267;-68
2021/12/19 03:00:29;;;;;;;44.97;23.15;;;;;;;;;;4976095;28;20035;-68
2021/12/19 03:02:55;;;;;;;81.22;42.97;;;;;;;;;;4981435;28;20040;-67
2021/12/19 03:05:20;;;;;;;26.95;15.52;;;;;;;;;;4976893;28;20015;-68
2021/12/19 03:07:45;;;;;;;23.40;12.13;;;;;;;;;;4982360;28;20022;-67
2021/12/19 03:10:51;;;;;;;27.50;12.30;;;;;;;;;;4976666;28;20027;-68
2021/12/19 03:18:23;;;;;;;19.60;10.75;;;;;;;;;;4979199;28;20255;-68
2021/12/19 03:20:49;;;;;;;22.95;11.38;;;;;;;;;;4978160;28;20113;-67
2021/12/19 03:23:14;;;;;;;18.50;11.13;;;;;;;;;;4978613;28;20121;-67
2021/12/19 03:25:39;;;;;;;19.67;10.20;;;;;;;;;;4976148;28;20034;-68
2021/12/19 03:28:06;;;;;;;23.25;11.75;;;;;;;;;;4979675;28;20026;-68
2021/12/19 03:30:32;;;;;;;23.38;11.20;;;;;;;;;;4974067;28;20165;-67
2021/12/19 03:32:57;;;;;;;21.08;10.95;;;;;;;;;;4971436;28;20106;-67
2021/12/19 03:35:24;;;;;;;25.63;13.35;;;;;;;;;;4973445;28;20567;-68
2021/12/19 03:37:51;;;;;;;23.13;12.95;;;;;;;;;;4975750;28;20034;-70
2021/12/19 03:40:22;;;;;;;23.52;12.55;;;;;;;;;;4962986;28;20019;-70
2021/12/19 03:42:49;;;;;;;20.27;11.85;;;;;;;;;;4967441;28;20038;-70
2021/12/19 03:45:17;;;;;;;25.08;13.93;;;;;;;;;;4962652;28;20029;-70
2021/12/19 03:47:42;;;;;;;24.77;12.10;;;;;;;;;;4962793;28;20029;-71
2021/12/19 03:50:09;;;;;;;21.70;12.02;;;;;;;;;;4979825;28;20019;-71
2021/12/19 03:52:34;;;;;;;20.05;11.57;;;;;;;;;;4964032;28;20113;-71
2021/12/19 03:55:00;;;;;;;21.45;10.38;;;;;;;;;;4967916;28;20401;-70
2021/12/19 03:57:25;;;;;;;19.33;11.02;;;;;;;;;;4963018;28;20525;-70
2021/12/19 03:59:50;;;;;;;19.83;10.77;;;;;;;;;;4964171;28;20050;-71
2021/12/19 04:02:25;;;;;;;23.15;11.82;;;;;;;;;;4961347;28;20146;-72
2021/12/19 04:04:51;;;;;;;23.90;12.25;;;;;;;;;;4961017;28;20043;-71
2021/12/19 04:07:16;;;;;;;25.63;11.77;;;;;;;;;;4961051;28;20486;-70
2021/12/19 04:09:42;;;;;;;20.77;11.30;;;;;;;;;;4963583;28;20025;-71
2021/12/19 04:12:08;;;;;;;27.48;13.45;;;;;;;;;;4963134;28;20023;-70
2021/12/19 04:14:34;;;;;;;21.60;11.35;;;;;;;;;;4962430;28;20508;-70
2021/12/19 04:16:59;;;;;;;18.98;10.32;;;;;;;;;;4963577;28;20027;-70
2021/12/19 04:19:26;;;;;;;16.15;9.52;;;;;;;;;;4963704;28;20114;-71
2021/12/19 04:21:51;;;;;;;21.35;11.32;;;;;;;;;;4967254;28;20026;-71
2021/12/19 04:24:16;;;;;;;21.13;11.55;;;;;;;;;;4963688;28;20062;-70
2021/12/19 04:26:42;;;;;;;18.60;10.75;;;;;;;;;;4976571;28;20081;-70
2021/12/19 04:29:07;;;;;;;18.83;10.60;;;;;;;;;;4962772;28;20030;-71
2021/12/19 04:31:32;;;;;;;24.67;10.98;;;;;;;;;;4962360;28;20042;-71
2021/12/19 04:33:58;;;;;;;20.13;11.38;;;;;;;;;;4963733;28;20035;-72
2021/12/19 04:36:30;;;;;;;20.50;11.35;;;;;;;;;;4960949;28;20030;-71
2021/12/19 04:58:44;;;;;;;26.77;12.82;;;;;;;;;;4943193;28;20594;-70
2021/12/19 05:14:29;;;;;;;22.55;11.40;;;;;;;;;;4960777;28;20233;-71
2021/12/19 05:17:00;;;;;;;22.10;12.07;;;;;;;;;;4961508;28;20122;-71
2021/12/19 05:19:41;;;;;;;24.33;12.23;;;;;;;;;;4960367;28;20038;-71
2021/12/19 05:22:07;;;;;;;22.52;11.05;;;;;;;;;;4961717;28;20568;-70
2021/12/19 05:24:47;;;;;;;20.35;10.98;;;;;;;;;;4961863;28;20023;-72
2021/12/19 05:27:12;;;;;;;25.17;12.23;;;;;;;;;;4961856;28;20400;-71
2021/12/19 05:29:38;;;;;;;17.58;10.75;;;;;;;;;;4966336;28;20051;-70
2021/12/19 05:32:03;;;;;;;22.33;11.48;;;;;;;;;;4960412;28;20058;-71
2021/12/19 05:34:30;;;;;;;22.95;11.85;;;;;;;;;;4977575;28;20035;-70
2021/12/19 05:45:14;;;;;;;19.55;11.48;;;;;;;;;;4961339;28;20034;-71
2021/12/19 05:47:41;;;;;;;24.00;11.93;;;;;;;;;;4946586;28;20033;-71
2021/12/19 05:50:07;;;;;;;22.70;11.55;;;;;;;;;;4960751;28;20114;-71
2021/12/19 05:52:32;;;;;;;19.08;10.10;;;;;;;;;;4961629;28;20041;-71
2021/12/19 05:54:57;;;;;;;21.77;10.45;;;;;;;;;;4959769;28;20038;-70
2021/12/19 05:57:23;;;;;;;19.90;11.40;;;;;;;;;;4960629;28;20429;-71
2021/12/19 05:59:48;;;;;;;21.55;10.45;;;;;;;;;;4975867;28;20397;-70
2021/12/19 06:02:13;;;;;;;19.58;11.25;;;;;;;;;;4960658;28;20039;-70
2021/12/19 06:04:39;;;;;;;19.15;10.88;;;;;;;;;;4961529;28;20463;-70
2021/12/19 06:07:04;;;;;;;19.00;10.60;;;;;;;;;;4960757;28;20065;-70
2021/12/19 06:09:29;;;;;;;16.40;9.93;;;;;;;;;;4959944;28;20054;-70
2021/12/19 06:11:55;;;;;;;19.48;10.48;;;;;;;;;;4961412;28;20110;-70
2021/12/19 06:14:20;;;;;;;19.88;10.75;;;;;;;;;;4960822;28;20065;-70
2021/12/19 06:16:45;;;;;;;15.55;9.73;;;;;;;;;;4960463;28;20375;-70
2021/12/19 06:19:11;;;;;;;21.15;10.85;;;;;;;;;;4961301;28;20034;-71
2021/12/19 06:21:36;;;;;;;17.40;10.13;;;;;;;;;;4959877;28;20431;-70
2021/12/19 06:24:02;;;;;;;19.77;10.27;;;;;;;;;;4960982;28;20536;-71
2021/12/19 06:26:27;;;;;;;20.27;10.10;;;;;;;;;;4960264;28;20078;-70
2021/12/19 06:28:52;;;;;;;19.98;10.77;;;;;;;;;;4959129;28;20405;-70
2021/12/19 06:31:18;;;;;;;21.95;11.32;;;;;;;;;;4959393;28;20035;-70
2021/12/19 06:33:43;;;;;;;17.65;10.60;;;;;;;;;;4943439;28;20069;-70
2021/12/19 06:36:09;;;;;;;20.40;10.93;;;;;;;;;;4964826;28;20292;-71
2021/12/19 06:38:35;;;;;;;20.33;10.45;;;;;;;;;;4965346;28;20310;-70
2021/12/19 06:41:00;;;;;;;19.27;10.93;;;;;;;;;;4960705;28;20034;-71
2021/12/19 06:43:26;;;;;;;20.83;11.75;;;;;;;;;;4959121;28;20030;-69
2021/12/19 06:45:53;;;;;;;23.38;12.35;;;;;;;;;;4965857;28;20080;-69
2021/12/19 06:48:22;;;;;;;21.65;11.40;;;;;;;;;;4962324;28;20055;-69
2021/12/19 06:50:47;;;;;;;16.75;9.82;;;;;;;;;;4961302;28;20161;-69
2021/12/19 06:53:13;;;;;;;20.20;10.60;;;;;;;;;;4944627;28;21055;-69
2021/12/19 06:55:38;;;;;;;18.88;9.40;;;;;;;;;;4960757;28;20027;-70
2021/12/19 06:58:03;;;;;;;21.17;10.80;;;;;;;;;;4960963;28;20516;-70
2021/12/19 07:00:29;;;;;;;19.48;10.80;;;;;;;;;;4959061;28;20046;-69
2021/12/19 07:02:55;;;;;;;21.02;10.73;;;;;;;;;;4960614;28;20069;-69
2021/12/19 07:05:20;;;;;;;19.55;11.02;;;;;;;;;;4975748;28;20449;-71
2021/12/19 07:07:46;;;;;;;17.42;10.50;;;;;;;;;;4959915;28;20038;-70
2021/12/19 07:10:11;;;;;;;18.95;10.07;;;;;;;;;;4959526;28;20110;-69
2021/12/19 07:12:36;;;;;;;19.55;10.02;;;;;;;;;;4959086;28;20070;-70
2021/12/19 07:15:03;;;;;;;19.13;9.90;;;;;;;;;;4958726;28;20112;-70
2021/12/19 07:17:29;;;;;;;18.08;10.30;;;;;;;;;;4943300;28;20050;-69
2021/12/19 07:19:54;;;;;;;19.63;11.00;;;;;;;;;;4961453;28;20030;-69
2021/12/19 07:22:19;;;;;;;15.93;9.15;;;;;;;;;;4959553;28;20410;-70
2021/12/19 07:24:48;;;;;;;12.82;8.35;;;;;;;;;;4960079;28;20679;-70
2021/12/19 07:27:13;;;;;;;19.48;9.27;;;;;;;;;;4943574;28;20043;-69
2021/12/19 07:29:39;;;;;;;16.63;8.73;;;;;;;;;;4960540;28;20594;-69
2021/12/19 07:32:04;;;;;;;16.42;9.32;;;;;;;;;;4962295;28;20050;-70
2021/12/19 07:34:33;;;;;;;22.35;9.95;;;;;;;;;;4960479;28;20035;-70
2021/12/19 07:36:58;;;;;;;22.25;11.45;;;;;;;;;;4973919;28;20028;-70
2021/12/19 07:39:38;;;;;;;21.00;11.13;;;;;;;;;;4961318;28;20038;-70
2021/12/19 07:42:06;;;;;;;18.63;10.63;;;;;;;;;;4964511;28;20038;-69
2021/12/19 07:44:31;;;;;;;19.45;11.10;;;;;;;;;;4931381;28;20058;-69
2021/12/19 07:46:57;;;;;;;21.13;10.80;;;;;;;;;;4962838;28;20065;-69
2021/12/19 07:49:22;;;;;;;18.63;10.18;;;;;;;;;;4967503;28;20091;-69
2021/12/19 07:51:47;;;;;;;16.70;9.48;;;;;;;;;;4946912;28;20067;-69
2021/12/19 07:54:13;;;;;;;17.10;9.60;;;;;;;;;;4968121;28;20073;-69
2021/12/19 07:56:39;;;;;;;17.98;9.73;;;;;;;;;;4963603;28;20049;-69
2021/12/19 07:59:05;;;;;;;20.02;10.45;;;;;;;;;;4977622;28;20039;-69
2021/12/19 08:01:30;;;;;;;18.33;10.70;;;;;;;;;;4964058;28;20050;-69
2021/12/19 08:03:55;;;;;;;17.27;9.95;;;;;;;;;;4963710;28;20030;-69
2021/12/19 08:06:21;;;;;;;19.15;10.68;;;;;;;;;;4963996;28;20061;-69
2021/12/19 08:08:47;;;;;;;21.63;10.48;;;;;;;;;;4964094;28;20062;-69
2021/12/19 08:13:56;;;;;;;20.20;9.43;;;;;;;;;;4963851;28;20041;-70
2021/12/19 08:16:22;;;;;;;18.13;9.65;;;;;;;;;;4963895;28;20039;-69
2021/12/19 08:18:47;;;;;;;20.90;9.55;;;;;;;;;;4962990;28;20150;-70
2021/12/19 08:21:12;;;;;;;13.18;8.30;;;;;;;;;;4963658;28;20070;-69
2021/12/19 08:23:38;;;;;;;14.20;8.23;;;;;;;;;;4965241;28;20049;-70
2021/12/19 08:26:03;;;;;;;12.40;6.85;;;;;;;;;;4977579;28;20389;-69
2021/12/19 08:28:28;;;;;;;8.98;5.85;;;;;;;;;;4962994;28;20157;-70
2021/12/19 08:30:54;;;;;;;9.93;6.25;;;;;;;;;;4962805;28;20148;-70
2021/12/19 08:33:19;;;;;;;9.10;5.25;;;;;;;;;;4966299;28;20026;-70
2021/12/19 08:35:45;;;;;;;6.85;4.60;;;;;;;;;;4962293;28;20027;-69
2021/12/19 08:38:10;;;;;;;6.72;4.60;;;;;;;;;;4965443;28;20026;-69
2021/12/19 08:40:37;;;;;;;7.43;4.60;;;;;;;;;;4964946;28;20026;-69
2021/12/19 08:43:04;;;;;;;8.23;5.18;;;;;;;;;;4948243;28;20090;-70
2021/12/19 08:45:30;;;;;;;14.15;7.95;;;;;;;;;;4965278;28;20085;-69
2021/12/19 08:47:55;;;;;;;16.77;10.88;;;;;;;;;;4963468;28;20026;-69
2021/12/19 08:50:22;;;;;;;8.60;6.22;;;;;;;;;;4963170;28;20034;-72
2021/12/19 08:52:48;;;;;;;9.52;5.85;;;;;;;;;;4962293;28;20031;-70
2021/12/19 08:55:13;;;;;;;10.70;6.82;;;;;;;;;;4964498;28;20098;-71
2021/12/19 08:57:38;;;;;;;11.10;6.85;;;;;;;;;;4962890;28;20030;-69
2021/12/19 09:00:06;;;;;;;9.80;6.72;;;;;;;;;;4947829;28;20062;-69
2021/12/19 09:02:31;;;;;;;13.20;6.97;;;;;;;;;;4964107;28;20054;-69
2021/12/19 09:04:57;;;;;;;11.90;6.53;;;;;;;;;;4966088;28;20031;-72
2021/12/19 09:07:22;;;;;;;10.40;6.57;;;;;;;;;;4957307;28;20047;-70
2021/12/19 09:09:48;;;;;;;11.38;6.47;;;;;;;;;;4961722;28;20037;-69
2021/12/19 09:12:14;;;;;;;12.88;7.05;;;;;;;;;;4961385;28;20253;-70
2021/12/19 09:14:39;;;;;;;11.23;6.60;;;;;;;;;;4958613;28;20023;-69
2021/12/19 09:17:05;;;;;;;11.93;6.82;;;;;;;;;;4953713;28;20422;-70
2021/12/19 09:19:30;;;;;;;10.65;7.10;;;;;;;;;;4961010;28;20030;-71
2021/12/19 09:21:55;;;;;;;10.40;6.70;;;;;;;;;;4958673;28;20121;-70
2021/12/19 09:24:21;;;;;;;12.73;7.55;;;;;;;;;;4962036;28;20109;-70
2021/12/19 09:26:46;;;;;;;12.57;7.85;;;;;;;;;;4960376;28;20118;-69
2021/12/19 09:29:11;;;;;;;13.30;7.63;;;;;;;;;;4958019;28;20046;-69
2021/12/19 09:31:37;;;;;;;12.55;7.65;;;;;;;;;;4956209;28;20073;-71
2021/12/19 09:34:03;;;;;;;10.65;7.30;;;;;;;;;;4958655;28;20078;-69
2021/12/19 09:36:29;;;;;;;10.75;7.40;;;;;;;;;;4957208;28;20126;-70
2021/12/19 09:38:54;;;;;;;15.82;7.38;;;;;;;;;;4960739;28;20516;-71
2021/12/19 09:41:28;;;;;;;11.18;7.53;;;;;;;;;;4963371;28;20023;-66
2021/12/19 09:43:53;;;;;;;10.55;6.13;;;;;;;;;;4967642;28;20070;-65
2021/12/19 09:46:22;;;;;;;9.65;5.78;;;;;;;;;;4964126;28;20035;-66
2021/12/19 09:48:48;;;;;;;10.27;5.47;;;;;;;;;;4963393;28;20524;-66
2021/12/19 09:51:14;;;;;;;8.50;5.20;;;;;;;;;;4964595;28;20120;-66
2021/12/19 09:53:39;;;;;;;8.15;5.38;;;;;;;;;;4962187;28;20121;-66
2021/12/19 09:56:04;;;;;;;9.98;5.43;;;;;;;;;;4960420;28;20066;-65
2021/12/19 09:58:32;;;;;;;9.60;5.97;;;;;;;;;;4959539;28;20042;-65
2021/12/19 10:00:57;;;;;;;7.20;5.05;;;;;;;;;;4964755;28;20039;-66
2021/12/19 10:03:23;;;;;;;9.88;5.82;;;;;;;;;;4965982;28;20129;-66
2021/12/19 10:05:48;;;;;;;9.75;5.43;;;;;;;;;;4965126;28;20027;-66
2021/12/19 10:08:22;;;;;;;8.50;5.35;;;;;;;;;;4963981;28;20031;-66
2021/12/19 10:10:55;;;;;;;9.50;5.72;;;;;;;;;;4967180;28;20113;-66
2021/12/19 10:13:34;;;;;;;9.45;5.55;;;;;;;;;;4965390;28;20730;-66
2021/12/19 10:16:00;;;;;;;9.05;5.03;;;;;;;;;;4963736;28;20524;-66
2021/12/19 10:18:25;;;;;;;8.10;5.68;;;;;;;;;;4961942;28;20054;-66
2021/12/19 10:20:59;;;;;;;9.43;5.47;;;;;;;;;;4981388;28;20073;-66
2021/12/19 10:23:35;;;;;;;8.90;6.00;;;;;;;;;;4952719;28;20375;-66
2021/12/19 10:26:06;;;;;;;9.88;5.90;;;;;;;;;;4964198;28;20785;-65
2021/12/19 10:28:31;;;;;;;7.72;5.25;;;;;;;;;;4966015;28;20037;-66
2021/12/19 10:30:58;;;;;;;7.40;4.78;;;;;;;;;;4965191;28;20038;-65
2021/12/19 10:33:26;;;;;;;6.28;4.47;;;;;;;;;;4965722;28;20054;-65
2021/12/19 10:35:56;;;;;;;6.65;3.60;;;;;;;;;;4965479;28;20038;-65
2021/12/19 10:38:28;;;;;;;5.07;3.78;;;;;;;;;;4969541;28;20057;-66
2021/12/19 10:40:58;;;;;;;12.18;6.63;;;;;;;;;;4969363;28;20056;-66
2021/12/19 10:43:29;;;;;;;18.58;7.78;;;;;;;;;;4970465;28;20342;-65
2021/12/19 10:45:57;;;;;;;18.77;6.60;;;;;;;;;;4972978;28;20469;-66
2021/12/19 10:48:27;;;;;;;16.15;6.75;;;;;;;;;;4966986;28;20023;-65
2021/12/19 10:50:58;;;;;;;10.80;5.15;;;;;;;;;;4972280;28;20035;-65
2021/12/19 10:53:26;;;;;;;6.10;4.30;;;;;;;;;;4969457;28;20658;-65
2021/12/19 10:55:52;;;;;;;9.10;4.40;;;;;;;;;;4965760;28;20027;-65
2021/12/19 10:58:27;;;;;;;5.78;4.25;;;;;;;;;;4964138;28;20078;-65
2021/12/19 11:01:29;;;;;;;5.57;3.35;;;;;;;;;;4965775;28;20101;-65
2021/12/19 11:03:56;;;;;;;5.63;3.00;;;;;;;;;;4953065;28;20035;-65
2021/12/19 11:06:33;;;;;;;2.88;2.60;;;;;;;;;;4962126;28;20133;-65
2021/12/19 11:09:00;;;;;;;3.95;2.88;;;;;;;;;;4965293;28;20398;-65
2021/12/19 11:11:34;;;;;;;5.25;3.50;;;;;;;;;;4964961;28;20121;-65
2021/12/19 11:13:59;;;;;;;5.40;3.83;;;;;;;;;;4964542;28;20046;-65
2021/12/19 11:16:24;;;;;;;5.30;3.80;;;;;;;;;;4968285;28;20434;-65
2021/12/19 11:18:50;;;;;;;8.35;4.47;;;;;;;;;;4975213;28;20102;-65
2021/12/19 11:21:17;;;;;;;7.15;4.05;;;;;;;;;;4975538;28;20028;-64
2021/12/19 11:23:42;;;;;;;8.48;4.32;;;;;;;;;;4967999;28;20074;-64
2021/12/19 11:26:08;;;;;;;6.50;4.22;;;;;;;;;;4967934;28;20547;-64
2021/12/19 11:28:33;;;;;;;6.03;4.00;;;;;;;;;;4983848;28;20058;-65
2021/12/19 11:30:58;;;;;;;8.40;4.07;;;;;;;;;;4949950;28;20043;-65
2021/12/19 11:33:32;;;;;;;16.63;5.63;;;;;;;;;;4970248;28;20038;-64
2021/12/19 11:35:57;;;;;;;10.88;4.65;;;;;;;;;;4966198;28;20069;-64
2021/12/19 11:38:23;;;;;;;12.05;4.40;;;;;;;;;;4965760;28;20070;-64
2021/12/19 11:40:50;;;;;;;6.78;4.28;;;;;;;;;;4971959;28;20564;-65
2021/12/19 11:43:15;;;;;;;4.75;3.85;;;;;;;;;;4967565;28;20074;-65
2021/12/19 11:45:56;;;;;;;5.00;3.10;;;;;;;;;;4966467;28;20331;-65
2021/12/19 11:50:54;;;;;;;4.13;2.47;;;;;;;;;;4966426;28;20394;-65
2021/12/19 11:53:26;;;;;;;2.95;2.33;;;;;;;;;;4969011;28;20027;-65
2021/12/19 11:56:06;;;;;;;4.63;2.83;;;;;;;;;;4968010;28;20038;-65
2021/12/19 11:58:46;;;;;;;5.10;2.83;;;;;;;;;;4967724;28;20019;-65
2021/12/19 12:01:13;;;;;;;5.10;2.65;;;;;;;;;;4965136;28;20395;-65
2021/12/19 12:03:44;;;;;;;2.20;2.00;;;;;;;;;;4935707;28;20038;-65
2021/12/19 12:06:20;;;;;;;2.60;2.10;;;;;;;;;;4967190;28;20425;-64
2021/12/19 12:09:04;;;;;;;2.42;1.80;;;;;;;;;;4966176;28;20089;-65
2021/12/19 12:11:31;;;;;;;2.60;2.00;;;;;;;;;;4967853;28;21935;-65
2021/12/19 12:14:18;;;;;;;1.70;1.60;;;;;;;;;;4966625;28;20022;-65
2021/12/19 12:16:54;;;;;;;2.25;1.70;;;;;;;;;;4967621;28;20481;-65
2021/12/19 12:19:45;;;;;;;1.52;1.42;;;;;;;;;;4965889;28;20505;-64
2021/12/19 12:22:23;;;;;;;1.52;1.42;;;;;;;;;;4967768;28;20561;-64
2021/12/19 12:25:11;;;;;;;1.50;1.40;;;;;;;;;;4968945;28;20026;-64
2021/12/19 12:27:44;;;;;;;2.00;1.40;;;;;;;;;;4967147;28;20102;-64
2021/12/19 12:30:14;;;;;;;1.50;1.35;;;;;;;;;;4966664;28;20138;-65
2021/12/19 12:32:39;;;;;;;1.30;1.20;;;;;;;;;;4968080;28;20509;-64
2021/12/19 12:35:05;;;;;;;1.50;1.40;;;;;;;;;;4967862;28;20089;-64
2021/12/19 12:37:32;;;;;;;1.40;1.30;;;;;;;;;;4963096;28;20031;-64
2021/12/19 12:40:16;;;;;;;1.10;1.02;;;;;;;;;;4950523;28;20031;-64
2021/12/19 12:43:09;;;;;;;1.00;1.00;;;;;;;;;;4970277;28;20038;-64
2021/12/19 12:45:51;;;;;;;1.48;1.20;;;;;;;;;;4979823;28;20556;-64
2021/12/19 12:48:38;;;;;;;2.90;1.40;;;;;;;;;;4967704;28;20031;-64
2021/12/19 12:51:23;;;;;;;3.00;1.30;;;;;;;;;;4968098;28;20034;-64
2021/12/19 12:53:49;;;;;;;3.13;1.30;;;;;;;;;;4970971;28;20062;-64
2021/12/19 12:56:19;;;;;;;1.45;1.35;;;;;;;;;;4969250;28;20068;-65
2021/12/19 12:58:51;;;;;;;1.63;1.45;;;;;;;;;;4965694;28;20042;-65
2021/12/19 13:01:26;;;;;;;1.90;1.00;;;;;;;;;;4966155;28;20639;-64
2021/12/19 13:04:05;;;;;;;1.90;1.40;;;;;;;;;;4971140;28;20031;-64
2021/12/19 13:06:49;;;;;;;1.10;1.10;;;;;;;;;;4967945;28;20027;-65
2021/12/19 13:09:16;;;;;;;;;;;;;;;;;;4965010;28;20117;-64
2021/12/19 13:11:42;;;;;;;1.25;1.15;;;;;;;;;;4963773;28;19964;-65
2021/12/19 13:14:11;;;;;;;1.15;1.10;;;;;;;;;;4962923;28;20027;-64
2021/12/19 13:16:48;;;;;;;1.00;1.00;;;;;;;;;;4964716;28;20027;-64
2021/12/19 13:19:33;;;;;;;1.15;1.10;;;;;;;;;;4963223;28;20031;-65
2021/12/19 13:21:59;;;;;;;1.30;1.30;;;;;;;;;;4961017;28;20440;-65
2021/12/19 13:24:24;;;;;;;1.60;1.10;;;;;;;;;;4963153;28;20031;-65
2021/12/19 13:27:10;;;;;;;1.20;1.20;;;;;;;;;;4961172;28;20506;-64
2021/12/19 13:29:37;;;;;;;1.33;1.30;;;;;;;;;;4962642;28;20514;-65
2021/12/19 13:32:21;;;;;;;1.15;1.15;;;;;;;;;;4960804;28;20383;-65
2021/12/19 13:34:47;;;;;;;1.25;1.15;;;;;;;;;;4962085;28;20414;-65
2021/12/19 13:37:13;;;;;;;1.35;1.27;;;;;;;;;;4963021;28;20086;-65
2021/12/19 13:39:38;;;;;;;1.40;1.30;;;;;;;;;;4962748;28;20042;-63
2021/12/19 13:42:10;;;;;;;2.55;1.52;;;;;;;;;;4964742;28;20129;-63
2021/12/19 13:44:36;;;;;;;1.27;1.17;;;;;;;;;;4964702;28;20031;-65
2021/12/19 13:47:11;;;;;;;1.40;1.30;;;;;;;;;;4964207;28;20089;-65
2021/12/19 13:49:36;;;;;;;1.30;1.30;;;;;;;;;;4964725;28;20109;-65
2021/12/19 13:52:03;;;;;;;1.50;1.40;;;;;;;;;;4962172;28;20041;-65
2021/12/19 13:54:28;;;;;;;2.13;1.40;;;;;;;;;;4964327;28;20031;-65
2021/12/19 13:56:54;;;;;;;1.30;1.30;;;;;;;;;;4950876;28;20033;-65
2021/12/19 13:59:21;;;;;;;1.50;1.40;;;;;;;;;;4965133;28;20041;-65
2021/12/19 14:01:46;;;;;;;1.30;1.30;;;;;;;;;;4963130;28;20305;-66
2021/12/19 14:04:17;;;;;;;3.08;1.52;;;;;;;;;;4964203;28;21338;-65
2021/12/19 14:06:45;;;;;;;1.50;1.40;;;;;;;;;;4959647;28;20042;-63
2021/12/19 14:09:14;;;;;;;1.48;1.40;;;;;;;;;;4961510;28;20384;-63
2021/12/19 14:11:42;;;;;;;1.60;1.50;;;;;;;;;;4959833;28;20398;-65
2021/12/19 14:14:11;;;;;;;1.38;1.27;;;;;;;;;;4960298;28;20031;-65
2021/12/19 14:16:45;;;;;;;1.30;1.20;;;;;;;;;;4959011;28;20027;-65
2021/12/19 14:19:20;;;;;;;1.35;1.25;;;;;;;;;;4960103;28;20711;-65
2021/12/19 14:21:46;;;;;;;1.23;1.20;;;;;;;;;;4962331;28;20034;-65
2021/12/19 14:24:19;;;;;;;2.17;1.65;;;;;;;;;;4963062;28;21502;-65
2021/12/19 14:26:46;;;;;;;1.40;1.30;;;;;;;;;;4960719;28;20049;-65
2021/12/19 14:29:27;;;;;;;1.60;1.50;;;;;;;;;;4960455;28;20092;-65
2021/12/19 14:32:00;;;;;;;1.30;1.20;;;;;;;;;;4960997;28;20039;-65
2021/12/19 14:34:28;;;;;;;6.40;1.30;;;;;;;;;;4962156;28;20038;-65
2021/12/19 14:36:53;;;;;;;2.05;1.40;;;;;;;;;;4960480;28;20516;-65
2021/12/19 14:39:21;;;;;;;1.00;1.00;;;;;;;;;;4958692;28;20034;-65
2021/12/19 14:41:46;;;;;;;1.23;1.13;;;;;;;;;;4960184;28;20414;-65
2021/12/19 14:44:22;;;;;;;1.20;1.10;;;;;;;;;;4961852;28;20039;-65
2021/12/19 14:46:48;;;;;;;1.70;1.23;;;;;;;;;;4962259;28;20035;-65
2021/12/19 14:49:13;;;;;;;1.10;1.10;;;;;;;;;;4961228;28;20047;-65
2021/12/19 14:51:39;;;;;;;1.67;1.30;;;;;;;;;;4946733;28;20112;-65
2021/12/19 14:54:04;;;;;;;1.90;1.40;;;;;;;;;;4961595;28;20367;-65
2021/12/19 14:56:29;;;;;;;2.92;1.55;;;;;;;;;;4962786;28;20031;-65
2021/12/19 14:58:59;;;;;;;3.78;1.40;;;;;;;;;;4963526;28;20125;-65
2021/12/19 15:01:32;;;;;;;2.22;1.40;;;;;;;;;;4960961;28;20050;-64
2021/12/19 15:04:03;;;;;;;1.10;1.10;;;;;;;;;;4963453;28;20045;-65
2021/12/19 15:06:31;;;;;;;1.60;1.50;;;;;;;;;;4964261;28;20033;-65
2021/12/19 15:08:57;;;;;;;1.45;1.30;;;;;;;;;;4944404;28;20126;-64
2021/12/19 15:11:23;;;;;;;1.55;1.25;;;;;;;;;;4964713;28;20465;-64
2021/12/19 15:13:48;;;;;;;1.00;1.00;;;;;;;;;;4961891;28;20110;-64
2021/12/19 15:16:14;;;;;;;1.45;1.20;;;;;;;;;;4960597;28;20043;-65
2021/12/19 15:18:40;;;;;;;3.15;1.33;;;;;;;;;;4959433;28;20037;-64
2021/12/19 15:21:05;;;;;;;1.25;1.20;;;;;;;;;;4960737;28;20183;-65
2021/12/19 15:23:31;;;;;;;1.27;1.17;;;;;;;;;;4960683;28;20030;-64
2021/12/19 15:25:56;;;;;;;2.97;1.20;;;;;;;;;;4961201;28;20130;-64
2021/12/19 15:28:23;;;;;;;3.83;1.20;;;;;;;;;;4958357;28;20121;-65
2021/12/19 15:30:49;;;;;;;1.30;1.20;;;;;;;;;;4959767;28;20073;-64
2021/12/19 15:33:16;;;;;;;1.45;1.20;;;;;;;;;;4946811;28;20039;-65
2021/12/19 15:35:42;;;;;;;1.10;1.10;;;;;;;;;;4962627;28;20102;-65
2021/12/19 15:38:07;;;;;;;2.17;1.38;;;;;;;;;;4964580;28;20239;-65